createdAt,value
2022-10-07T00:01:50.922Z,3.60
2022-10-07T00:04:20.569Z,3.37
2022-10-07T00:06:50.303Z,4.20
2022-10-07T00:09:20.399Z,4.35
2022-10-07T00:11:50.123Z,3.90
2022-10-07T00:14:19.879Z,3.77
2022-10-07T00:16:49.701Z,3.73
2022-10-07T00:19:19.482Z,3.93
2022-10-07T00:21:49.535Z,3.67
2022-10-07T00:24:19.065Z,3.75
2022-10-07T00:26:48.801Z,4.67
2022-10-07T00:29:18.597Z,3.73
2022-10-07T00:31:48.353Z,3.80
2022-10-07T00:34:18.048Z,3.33
2022-10-07T00:36:49.701Z,3.97
2022-10-07T00:39:19.784Z,4.37
2022-10-07T00:41:51.759Z,3.93
2022-10-07T00:44:44.705Z,3.62
2022-10-07T00:47:32.165Z,3.93
2022-10-07T00:50:04.949Z,4.33
2022-10-07T00:52:38.142Z,4.33
2022-10-07T00:55:11.042Z,3.80
2022-10-07T00:57:42.225Z,3.77
2022-10-07T01:00:13.214Z,4.07
2022-10-07T01:02:43.437Z,3.83
2022-10-07T01:05:14.199Z,3.97
2022-10-07T01:07:48.333Z,4.05
2022-10-07T01:10:21.886Z,4.24
2022-10-07T01:13:09.373Z,3.40
2022-10-07T01:15:44.864Z,4.20
2022-10-07T01:18:26.165Z,3.52
2022-10-07T01:21:07.484Z,3.63
2022-10-07T01:23:40.269Z,3.47
2022-10-07T01:26:15.776Z,4.50
2022-10-07T01:28:56.668Z,4.90
2022-10-07T01:31:32.247Z,3.90
2022-10-07T01:34:04.433Z,4.73
2022-10-07T01:36:37.010Z,4.20
2022-10-07T01:39:12.438Z,3.50
2022-10-07T01:41:42.854Z,3.73
2022-10-07T01:44:14.646Z,3.82
2022-10-07T01:46:45.190Z,4.60
2022-10-07T01:49:15.029Z,3.93
2022-10-07T01:51:49.506Z,3.60
2022-10-07T01:54:24.803Z,4.20
2022-10-07T01:57:10.737Z,5.13
2022-10-07T01:59:50.568Z,3.77
2022-10-07T02:02:24.297Z,4.27
2022-10-07T02:05:18.739Z,4.10
2022-10-07T02:08:16.491Z,3.73
2022-10-07T02:10:51.980Z,3.93
2022-10-07T02:13:44.664Z,4.77
2022-10-07T02:16:36.859Z,4.10
2022-10-07T02:19:09.717Z,4.03
2022-10-07T02:21:40.084Z,4.25
2022-10-07T02:24:12.150Z,4.53
2022-10-07T02:26:44.197Z,3.80
2022-10-07T02:29:17.589Z,3.63
2022-10-07T02:31:50.657Z,4.20
2022-10-07T02:34:23.927Z,4.30
2022-10-07T02:36:57.718Z,3.80
2022-10-07T02:39:29.763Z,3.92
2022-10-07T02:42:11.436Z,3.43
2022-10-07T02:44:46.957Z,4.07
2022-10-07T02:47:22.422Z,3.43
2022-10-07T02:49:53.800Z,4.03
2022-10-07T02:52:25.052Z,4.43
2022-10-07T02:55:00.823Z,4.33
2022-10-07T02:57:33.985Z,3.95
2022-10-07T03:00:11.129Z,3.95
2022-10-07T03:02:46.930Z,4.10
2022-10-07T03:05:21.368Z,4.53
2022-10-07T03:07:54.522Z,4.50
2022-10-07T03:10:26.121Z,3.90
2022-10-07T03:12:56.471Z,4.03
2022-10-07T03:15:27.653Z,3.90
2022-10-07T03:17:59.026Z,3.80
2022-10-07T03:20:30.679Z,4.12
2022-10-07T03:25:27.560Z,4.65
2022-10-07T03:27:58.175Z,3.73
2022-10-07T03:30:28.948Z,3.70
2022-10-07T03:32:59.223Z,3.50
2022-10-07T03:35:30.256Z,4.87
2022-10-07T03:38:00.058Z,3.90
2022-10-07T03:40:29.888Z,4.95
2022-10-07T03:42:59.788Z,4.57
2022-10-07T03:45:32.911Z,4.13
2022-10-07T03:48:02.675Z,5.00
2022-10-07T03:50:32.488Z,4.12
2022-10-07T03:53:02.310Z,4.10
2022-10-07T03:55:32.392Z,4.25
2022-10-07T03:58:02.788Z,4.78
2022-10-07T04:00:33.503Z,4.20
2022-10-07T04:03:03.530Z,4.20
2022-10-07T04:05:33.296Z,4.10
2022-10-07T04:08:04.762Z,4.03
2022-10-07T04:10:35.096Z,3.75
2022-10-07T04:13:05.582Z,4.60
2022-10-07T04:15:36.883Z,4.70
2022-10-07T04:18:07.969Z,3.87
2022-10-07T04:20:39.550Z,3.83
2022-10-07T04:23:10.723Z,4.22
2022-10-07T04:25:45.542Z,4.33
2022-10-07T04:28:20.231Z,4.50
2022-10-07T04:30:52.108Z,4.87
2022-10-07T04:33:25.009Z,4.75
2022-10-07T04:35:56.229Z,4.43
2022-10-07T04:38:28.511Z,4.50
2022-10-07T04:41:01.475Z,4.53
2022-10-07T04:43:33.002Z,4.30
2022-10-07T04:46:14.008Z,4.80
2022-10-07T04:48:46.538Z,4.33
2022-10-07T04:51:18.324Z,4.50
2022-10-07T04:53:56.488Z,4.57
2022-10-07T04:59:17.259Z,4.43
2022-10-07T05:01:47.212Z,4.37
2022-10-07T05:04:17.049Z,3.87
2022-10-07T05:06:47.310Z,4.37
2022-10-07T05:09:17.195Z,4.23
2022-10-07T05:11:48.967Z,4.10
2022-10-07T05:14:22.089Z,4.15
2022-10-07T05:16:53.946Z,4.47
2022-10-07T05:19:25.919Z,4.00
2022-10-07T05:21:55.995Z,3.90
2022-10-07T05:24:27.013Z,4.70
2022-10-07T05:26:56.918Z,4.57
2022-10-07T05:29:26.765Z,4.17
2022-10-07T05:32:03.946Z,4.45
2022-10-07T05:34:30.659Z,4.57
2022-10-07T05:37:01.196Z,3.90
2022-10-07T05:39:31.003Z,3.80
2022-10-07T05:42:02.552Z,3.77
2022-10-07T05:44:34.006Z,4.17
2022-10-07T05:47:04.577Z,4.00
2022-10-07T05:49:35.947Z,4.10
2022-10-07T05:52:08.045Z,4.35
2022-10-07T05:54:38.187Z,4.53
2022-10-07T05:57:08.004Z,4.67
2022-10-07T05:59:37.745Z,4.03
2022-10-07T06:02:15.436Z,4.33
2022-10-07T06:04:47.315Z,4.05
2022-10-07T06:07:21.361Z,4.42
2022-10-07T06:10:07.351Z,5.03
2022-10-07T06:12:56.570Z,4.60
2022-10-07T06:15:26.458Z,3.73
2022-10-07T06:17:56.472Z,4.30
2022-10-07T06:20:26.543Z,4.15
2022-10-07T06:22:58.106Z,4.23
2022-10-07T06:25:28.495Z,4.50
2022-10-07T06:28:00.367Z,4.13
2022-10-07T06:30:30.904Z,4.00
2022-10-07T06:33:02.100Z,3.65
2022-10-07T06:35:32.274Z,3.50
2022-10-07T06:38:02.079Z,4.20
2022-10-07T06:40:32.005Z,4.23
2022-10-07T06:43:02.099Z,4.43
2022-10-07T06:45:34.791Z,3.73
2022-10-07T06:48:06.206Z,4.37
2022-10-07T06:50:36.398Z,4.83
2022-10-07T06:53:06.636Z,3.80
2022-10-07T06:55:37.725Z,4.57
2022-10-07T06:58:11.817Z,4.27
2022-10-07T07:00:41.739Z,4.23
2022-10-07T07:03:12.227Z,4.40
2022-10-07T07:05:45.316Z,4.27
2022-10-07T07:08:17.092Z,4.40
2022-10-07T07:10:47.179Z,4.37
2022-10-07T07:13:18.343Z,4.47
2022-10-07T07:15:59.704Z,4.70
2022-10-07T07:18:31.219Z,3.83
2022-10-07T07:21:06.271Z,3.97
2022-10-07T07:23:36.186Z,4.00
2022-10-07T07:26:08.194Z,3.50
2022-10-07T07:28:38.593Z,3.67
2022-10-07T07:31:11.002Z,3.90
2022-10-07T07:33:41.588Z,4.77
2022-10-07T07:36:15.942Z,3.50
2022-10-07T07:38:59.252Z,3.13
2022-10-07T07:41:34.899Z,3.03
2022-10-07T07:44:09.257Z,3.50
2022-10-07T07:46:43.040Z,3.33
2022-10-07T07:49:14.155Z,3.47
2022-10-07T07:51:45.026Z,3.80
2022-10-07T07:54:16.825Z,3.87
2022-10-07T07:56:47.655Z,3.40
2022-10-07T07:59:17.569Z,3.43
2022-10-07T08:01:47.946Z,3.00
2022-10-07T08:04:18.029Z,2.90
2022-10-07T08:06:47.765Z,2.83
2022-10-07T08:09:17.769Z,2.93
2022-10-07T08:11:48.436Z,2.53
2022-10-07T08:14:18.979Z,2.90
2022-10-07T08:16:51.568Z,3.50
2022-10-07T08:19:21.649Z,2.70
2022-10-07T08:21:52.241Z,3.27
2022-10-07T08:24:25.324Z,2.90
2022-10-07T08:26:55.779Z,3.12
2022-10-07T08:29:25.951Z,2.67
2022-10-07T08:31:55.990Z,3.15
2022-10-07T08:34:25.649Z,3.37
2022-10-07T08:36:56.153Z,3.15
2022-10-07T08:39:27.773Z,2.67
2022-10-07T08:42:00.596Z,2.90
2022-10-07T08:44:39.182Z,2.75
2022-10-07T08:47:17.747Z,2.77
2022-10-07T08:50:09.683Z,3.03
2022-10-07T08:52:54.135Z,3.10
2022-10-07T08:55:41.614Z,2.55
2022-10-07T08:58:18.451Z,3.12
2022-10-07T09:01:07.413Z,2.50
2022-10-07T09:04:11.919Z,2.95
2022-10-07T09:06:47.538Z,2.80
2022-10-07T09:09:20.640Z,2.80
2022-10-07T09:11:53.028Z,2.67
2022-10-07T09:14:40.520Z,2.87
2022-10-07T09:17:13.592Z,2.58
2022-10-07T09:19:51.031Z,3.00
2022-10-07T09:22:23.574Z,2.60
2022-10-07T09:24:56.697Z,2.77
2022-10-07T09:27:26.739Z,2.25
2022-10-07T09:29:57.154Z,2.20
2022-10-07T09:32:26.693Z,2.17
2022-10-07T09:34:56.255Z,2.05
2022-10-07T09:37:27.796Z,2.30
2022-10-07T09:40:00.603Z,2.13
2022-10-07T09:42:33.136Z,2.10
2022-10-07T09:45:05.876Z,2.47
2022-10-07T09:47:40.425Z,1.87
2022-10-07T09:50:31.716Z,2.50
2022-10-07T09:53:02.929Z,2.73
2022-10-07T09:55:37.358Z,2.23
2022-10-07T09:58:21.684Z,1.64
2022-10-07T10:00:54.364Z,1.60
2022-10-07T10:03:35.461Z,2.27
2022-10-07T10:06:09.935Z,3.47
2022-10-07T10:08:42.901Z,2.03
2022-10-07T10:11:25.724Z,1.80
2022-10-07T10:13:56.016Z,2.23
2022-10-07T10:16:36.383Z,1.80
2022-10-07T10:19:24.341Z,2.53
2022-10-07T10:21:56.180Z,2.40
2022-10-07T10:24:45.755Z,2.23
2022-10-07T10:27:30.238Z,2.17
2022-10-07T10:30:05.263Z,1.77
2022-10-07T10:32:57.254Z,1.90
2022-10-07T10:35:31.811Z,2.00
2022-10-07T10:38:21.457Z,2.00
2022-10-07T10:41:16.535Z,1.60
2022-10-07T10:44:06.902Z,2.22
2022-10-07T10:46:52.179Z,2.27
2022-10-07T10:49:30.850Z,2.13
2022-10-07T10:52:21.811Z,2.27
2022-10-07T10:55:13.561Z,1.30
2022-10-07T10:57:49.373Z,1.77
2022-10-07T11:00:21.327Z,2.05
2022-10-07T11:03:16.625Z,2.33
2022-10-07T11:05:48.089Z,1.70
2022-10-07T11:08:23.171Z,2.12
2022-10-07T11:11:01.134Z,2.20
2022-10-07T11:13:43.970Z,2.67
2022-10-07T11:16:19.456Z,1.57
2022-10-07T11:18:57.498Z,2.37
2022-10-07T11:21:33.068Z,2.03
2022-10-07T11:24:05.568Z,2.00
2022-10-07T11:26:46.891Z,2.10
2022-10-07T11:29:40.320Z,2.73
2022-10-07T11:32:15.555Z,1.70
2022-10-07T11:35:10.675Z,1.50
2022-10-07T11:37:43.205Z,1.60
2022-10-07T11:40:16.403Z,1.70
2022-10-07T11:42:49.902Z,2.03
2022-10-07T11:45:22.682Z,1.87
2022-10-07T11:48:07.379Z,2.65
2022-10-07T11:50:51.762Z,1.83
2022-10-07T11:53:25.107Z,1.85
2022-10-07T11:56:06.815Z,2.23
2022-10-07T11:58:39.563Z,1.57
2022-10-07T12:01:30.532Z,1.80
2022-10-07T12:04:19.877Z,1.80
2022-10-07T12:07:25.369Z,1.70
2022-10-07T12:09:57.585Z,1.60
2022-10-07T12:12:29.231Z,1.82
2022-10-07T12:15:03.704Z,2.00
2022-10-07T12:17:33.465Z,1.23
2022-10-07T12:20:31.690Z,1.60
2022-10-07T12:23:22.446Z,1.70
2022-10-07T12:26:25.963Z,1.43
2022-10-07T12:28:57.248Z,1.50
2022-10-07T12:31:35.626Z,1.75
2022-10-07T12:34:09.835Z,1.80
2022-10-07T12:36:41.191Z,1.60
2022-10-07T12:39:14.045Z,1.97
2022-10-07T12:41:46.614Z,1.83
2022-10-07T12:44:36.367Z,2.40
2022-10-07T12:47:18.280Z,1.83
2022-10-07T12:49:56.780Z,1.60
2022-10-07T12:52:34.959Z,1.77
2022-10-07T12:55:11.013Z,1.70
2022-10-07T13:00:18.414Z,2.10
2022-10-07T13:02:53.895Z,1.82
2022-10-07T13:05:38.254Z,2.00
2022-10-07T13:08:12.822Z,1.72
2022-10-07T13:10:49.143Z,1.77
2022-10-07T13:13:29.109Z,2.00
2022-10-07T13:16:01.983Z,1.60
2022-10-07T13:18:43.309Z,1.70
2022-10-07T13:21:24.997Z,1.50
2022-10-07T13:23:56.784Z,1.43
2022-10-07T13:26:27.717Z,1.90
2022-10-07T13:29:00.287Z,1.43
2022-10-07T13:31:34.130Z,1.57
2022-10-07T13:34:08.005Z,1.30
2022-10-07T13:36:44.739Z,1.27
2022-10-07T13:39:22.845Z,1.45
2022-10-07T13:42:02.308Z,1.70
2022-10-07T13:44:33.488Z,1.50
2022-10-07T13:47:05.863Z,1.80
2022-10-07T13:49:38.871Z,1.93
2022-10-07T13:52:17.195Z,1.52
2022-10-07T13:54:52.344Z,1.57
2022-10-07T13:57:23.486Z,1.55
2022-10-07T13:59:53.568Z,1.70
2022-10-07T14:02:23.641Z,1.50
2022-10-07T14:05:02.040Z,1.40
2022-10-07T14:07:32.226Z,1.80
2022-10-07T14:10:06.638Z,2.20
2022-10-07T14:12:39.938Z,1.80
2022-10-07T14:15:19.537Z,1.50
2022-10-07T14:17:53.818Z,1.63
2022-10-07T14:20:32.123Z,1.67
2022-10-07T14:23:10.554Z,1.40
2022-10-07T14:25:55.017Z,1.30
2022-10-07T14:28:30.366Z,1.93
2022-10-07T14:31:29.793Z,2.10
2022-10-07T14:34:37.382Z,1.80
2022-10-07T14:37:21.672Z,2.02
2022-10-07T14:39:53.996Z,2.00
2022-10-07T14:42:30.223Z,1.90
2022-10-07T14:45:01.249Z,1.50
2022-10-07T14:47:33.553Z,1.50
2022-10-07T14:50:04.901Z,1.92
2022-10-07T14:52:44.484Z,1.67
2022-10-07T14:55:20.126Z,1.87
2022-10-07T14:57:49.876Z,1.57
2022-10-07T15:00:24.823Z,1.57
2022-10-07T15:02:54.677Z,2.00
2022-10-07T15:05:26.223Z,1.73
2022-10-07T15:07:56.000Z,1.40
2022-10-07T15:10:26.669Z,1.30
2022-10-07T15:12:57.627Z,1.67
2022-10-07T15:15:27.426Z,1.80
2022-10-07T15:17:57.156Z,1.63
2022-10-07T15:20:27.358Z,1.45
2022-10-07T15:22:57.411Z,1.77
2022-10-07T15:25:27.145Z,1.70
2022-10-07T15:27:56.880Z,1.57
2022-10-07T15:30:26.789Z,1.98
2022-10-07T15:32:57.778Z,1.70
2022-10-07T15:35:27.908Z,1.93
2022-10-07T15:37:57.666Z,1.80
2022-10-07T15:40:27.131Z,2.05
2022-10-07T15:42:58.204Z,1.80
2022-10-07T15:45:27.990Z,1.80
2022-10-07T15:48:00.475Z,1.77
2022-10-07T15:50:29.763Z,1.60
2022-10-07T15:52:59.504Z,1.70
2022-10-07T15:55:29.427Z,1.63
2022-10-07T15:57:59.138Z,1.87
2022-10-07T16:00:29.504Z,1.35
2022-10-07T16:03:01.259Z,1.75
2022-10-07T16:05:31.297Z,1.53
2022-10-07T16:08:02.687Z,1.60
2022-10-07T16:10:33.688Z,1.92
2022-10-07T16:13:03.840Z,2.10
2022-10-07T16:15:34.884Z,1.40
2022-10-07T16:18:06.533Z,1.77
2022-10-07T16:20:40.708Z,1.57
2022-10-07T16:23:10.183Z,2.10
2022-10-07T16:25:39.924Z,2.33
2022-10-07T16:28:28.279Z,1.87
2022-10-07T16:30:58.127Z,1.50
2022-10-07T16:33:27.861Z,1.80
2022-10-07T16:35:58.329Z,2.55
2022-10-07T16:38:27.818Z,1.73
2022-10-07T16:40:57.855Z,2.33
2022-10-07T16:43:27.598Z,1.70
2022-10-07T16:45:58.909Z,2.13
2022-10-07T16:48:28.602Z,2.00
2022-10-07T16:50:59.289Z,2.50
2022-10-07T16:53:29.022Z,2.23
2022-10-07T16:56:04.648Z,1.87
2022-10-07T16:58:35.229Z,2.03
2022-10-07T17:01:07.190Z,2.45
2022-10-07T17:03:38.357Z,2.10
2022-10-07T17:06:13.030Z,2.00
2022-10-07T17:08:48.040Z,2.00
2022-10-07T17:11:30.208Z,3.13
2022-10-07T17:14:02.730Z,2.50
2022-10-07T17:16:38.726Z,1.87
2022-10-07T17:19:08.733Z,1.80
2022-10-07T17:21:40.650Z,1.90
2022-10-07T17:24:13.017Z,2.10
2022-10-07T17:26:43.287Z,2.20
2022-10-07T17:29:16.356Z,2.07
2022-10-07T17:31:48.251Z,2.00
2022-10-07T17:34:19.714Z,2.02
2022-10-07T17:36:50.422Z,2.30
2022-10-07T17:39:20.601Z,2.17
2022-10-07T17:41:50.408Z,2.60
2022-10-07T17:44:21.354Z,3.33
2022-10-07T17:46:51.200Z,3.07
2022-10-07T17:49:20.775Z,3.00
2022-10-07T17:51:50.517Z,2.47
2022-10-07T17:54:20.256Z,2.10
2022-10-07T17:56:50.349Z,2.37
2022-10-07T17:59:20.097Z,2.90
2022-10-07T18:01:49.830Z,2.53
2022-10-07T18:04:24.602Z,2.65
2022-10-07T18:06:51.184Z,2.60
2022-10-07T18:09:22.721Z,3.00
2022-10-07T18:12:08.582Z,2.90
2022-10-07T18:14:55.838Z,2.73
2022-10-07T18:17:25.573Z,2.57
2022-10-07T18:19:55.603Z,2.72
2022-10-07T18:22:25.392Z,2.70
2022-10-07T18:24:56.744Z,3.20
2022-10-07T18:27:27.074Z,3.75
2022-10-07T18:29:56.883Z,2.60
2022-10-07T18:32:26.312Z,3.02
2022-10-07T18:34:56.094Z,3.30
2022-10-07T18:37:25.907Z,2.97
2022-10-07T18:39:55.662Z,3.40
2022-10-07T18:42:25.418Z,3.20
2022-10-07T18:44:55.240Z,3.53
2022-10-07T18:47:24.995Z,3.77
2022-10-07T18:49:56.396Z,3.00
2022-10-07T18:52:26.452Z,3.00
2022-10-07T18:54:56.187Z,3.23
2022-10-07T18:57:25.997Z,3.40
2022-10-07T18:59:55.741Z,3.27
2022-10-07T19:02:25.573Z,2.57
2022-10-07T19:04:56.111Z,2.80
2022-10-07T19:07:25.916Z,3.07
2022-10-07T19:09:55.664Z,3.73
2022-10-07T19:12:38.825Z,2.83
2022-10-07T19:15:09.424Z,2.60
2022-10-07T19:17:39.207Z,3.60
2022-10-07T19:20:11.176Z,2.65
2022-10-07T19:22:40.934Z,2.70
2022-10-07T19:25:28.388Z,3.03
2022-10-07T19:27:58.098Z,2.67
2022-10-07T19:30:28.218Z,2.77
2022-10-07T19:32:58.016Z,2.77
2022-10-07T19:35:28.610Z,3.40
2022-10-07T19:37:58.348Z,2.87
2022-10-07T19:40:28.026Z,2.60
2022-10-07T19:42:57.791Z,2.77
2022-10-07T19:45:27.298Z,2.30
2022-10-07T19:47:57.059Z,2.77
2022-10-07T19:50:26.794Z,3.00
2022-10-07T19:52:57.002Z,2.77
2022-10-07T19:55:29.340Z,3.30
2022-10-07T19:58:00.428Z,3.00
2022-10-07T20:00:31.655Z,2.42
2022-10-07T20:03:01.126Z,2.70
2022-10-07T20:05:31.486Z,4.00
2022-10-07T20:08:01.821Z,3.20
2022-10-07T20:10:31.585Z,2.83
2022-10-07T20:13:01.641Z,3.42
2022-10-07T20:15:31.453Z,2.87
2022-10-07T20:18:03.149Z,3.42
2022-10-07T20:20:33.962Z,2.90
2022-10-07T20:23:03.705Z,2.87
2022-10-07T20:25:33.442Z,3.57
2022-10-07T20:28:03.325Z,3.23
2022-10-07T20:30:34.290Z,3.80
2022-10-07T20:33:05.737Z,3.30
2022-10-07T20:35:35.774Z,2.90
2022-10-07T20:38:06.710Z,3.10
2022-10-07T20:40:53.991Z,3.00
2022-10-07T20:43:24.061Z,2.83
2022-10-07T20:45:57.762Z,3.73
2022-10-07T20:48:29.326Z,3.30
2022-10-07T20:51:07.995Z,3.37
2022-10-07T20:53:37.782Z,2.93
2022-10-07T20:56:09.993Z,2.90
2022-10-07T20:58:39.875Z,3.87
2022-10-07T21:01:09.994Z,3.20
2022-10-07T21:03:40.064Z,4.57
2022-10-07T21:06:11.804Z,3.30
2022-10-07T21:08:41.565Z,3.10
2022-10-07T21:11:11.343Z,3.20
2022-10-07T21:13:41.139Z,2.90
2022-10-07T21:16:11.972Z,2.80
2022-10-07T21:18:41.796Z,3.33
2022-10-07T21:21:11.605Z,3.37
2022-10-07T21:23:41.368Z,3.27
2022-10-07T21:26:11.876Z,3.05
2022-10-07T21:28:41.697Z,2.60
2022-10-07T21:31:17.433Z,2.50
2022-10-07T21:33:49.640Z,2.65
2022-10-07T21:36:22.647Z,2.75
2022-10-07T21:38:58.583Z,2.80
2022-10-07T21:41:38.452Z,2.60
2022-10-07T21:44:12.865Z,2.98
2022-10-07T21:46:44.457Z,2.63
2022-10-07T21:49:15.448Z,2.63
2022-10-07T21:51:45.547Z,2.63
2022-10-07T21:54:15.596Z,2.47
2022-10-07T21:56:46.353Z,2.60
2022-10-07T21:59:16.157Z,3.20
2022-10-07T22:01:46.277Z,2.47
2022-10-07T22:04:19.630Z,2.00
2022-10-07T22:07:07.016Z,2.83
2022-10-07T22:09:36.772Z,2.73
2022-10-07T22:12:08.837Z,3.15
2022-10-07T22:14:39.409Z,2.90
2022-10-07T22:17:09.895Z,2.90
2022-10-07T22:19:39.699Z,2.40
2022-10-07T22:22:12.995Z,2.28
2022-10-07T22:24:42.748Z,2.90
2022-10-07T22:27:12.492Z,2.27
2022-10-07T22:29:42.416Z,2.20
2022-10-07T22:32:12.212Z,3.08
2022-10-07T22:34:59.361Z,2.43
2022-10-07T22:39:59.310Z,2.42
2022-10-07T22:42:29.049Z,2.70
2022-10-07T22:44:58.810Z,2.53
2022-10-07T22:47:29.014Z,2.57
2022-10-07T22:49:58.765Z,2.43
2022-10-07T22:52:29.170Z,2.20
2022-10-07T22:54:59.025Z,2.53
2022-10-07T22:57:28.824Z,2.93
2022-10-07T23:00:00.490Z,2.20
2022-10-07T23:02:30.656Z,2.15
2022-10-07T23:05:01.398Z,2.67
2022-10-07T23:07:31.150Z,2.50
2022-10-07T23:10:00.973Z,2.90
2022-10-07T23:12:30.779Z,2.47
2022-10-07T23:15:00.270Z,2.50
2022-10-07T23:17:31.097Z,2.43
2022-10-07T23:20:01.122Z,2.53
2022-10-07T23:22:30.846Z,2.03
2022-10-07T23:25:02.377Z,2.37
2022-10-07T23:27:32.109Z,2.60
2022-10-07T23:30:02.627Z,3.13
2022-10-07T23:32:32.443Z,2.97
2022-10-07T23:35:02.195Z,2.97
2022-10-07T23:37:31.950Z,3.50
2022-10-07T23:40:01.698Z,2.43
2022-10-07T23:42:31.444Z,2.20
2022-10-07T23:45:01.460Z,2.57
2022-10-07T23:47:31.501Z,2.52
2022-10-07T23:50:01.542Z,2.70
2022-10-07T23:52:31.489Z,2.53
2022-10-07T23:55:01.294Z,2.83
2022-10-07T23:57:31.089Z,2.70
